createdAt,value
2018-07-20T00:01:02.589Z,8.80
2018-07-20T00:03:39.257Z,8.83
2018-07-20T00:06:25.208Z,12.60
2018-07-20T00:08:54.522Z,9.97
2018-07-20T00:11:23.372Z,7.57
2018-07-20T00:14:03.257Z,9.03
2018-07-20T00:16:37.659Z,8.80
2018-07-20T00:19:12.429Z,8.37
2018-07-20T00:21:46.907Z,7.70
2018-07-20T00:24:32.035Z,8.20
2018-07-20T00:27:00.440Z,8.93
2018-07-20T00:29:28.790Z,9.93
2018-07-20T00:31:57.116Z,8.13
2018-07-20T00:34:38.092Z,10.47
2018-07-20T00:39:52.659Z,9.77
2018-07-20T00:42:21.071Z,11.00
2018-07-20T00:44:49.426Z,11.47
2018-07-20T00:47:17.860Z,11.57
2018-07-20T00:49:46.072Z,9.37
2018-07-20T00:52:14.500Z,7.83
2018-07-20T00:54:42.844Z,11.63
2018-07-20T00:57:11.406Z,9.77
2018-07-20T00:59:39.794Z,9.40
2018-07-20T01:02:08.263Z,8.37
2018-07-20T01:04:36.756Z,7.70
2018-07-20T01:07:05.139Z,12.30
2018-07-20T01:09:33.532Z,11.87
2018-07-20T01:12:01.639Z,12.67
2018-07-20T01:14:29.968Z,11.73
2018-07-20T01:16:58.356Z,9.03
2018-07-20T01:19:26.510Z,14.03
2018-07-20T01:21:55.399Z,11.30
2018-07-20T01:24:23.763Z,11.17
2018-07-20T01:26:52.099Z,17.20
2018-07-20T01:29:20.602Z,11.30
2018-07-20T01:31:49.225Z,11.13
2018-07-20T01:34:17.687Z,9.53
2018-07-20T01:36:46.125Z,11.77
2018-07-20T01:39:14.947Z,11.70
2018-07-20T01:41:43.355Z,12.47
2018-07-20T01:44:11.751Z,12.27
2018-07-20T01:46:40.136Z,11.33
2018-07-20T01:49:08.495Z,14.03
2018-07-20T01:51:36.948Z,10.37
2018-07-20T01:54:05.369Z,9.53
2018-07-20T01:56:33.754Z,13.70
2018-07-20T01:59:02.152Z,9.33
2018-07-20T02:01:31.337Z,10.67
2018-07-20T02:04:02.572Z,11.40
2018-07-20T02:06:36.327Z,11.00
2018-07-20T02:09:07.683Z,10.40
2018-07-20T02:11:36.112Z,12.37
2018-07-20T02:14:04.224Z,7.57
2018-07-20T02:16:32.593Z,8.33
2018-07-20T02:19:01.032Z,8.63
2018-07-20T02:21:29.765Z,8.30
2018-07-20T02:23:58.178Z,8.67
2018-07-20T02:26:26.575Z,7.03
2018-07-20T02:28:55.332Z,8.10
2018-07-20T02:31:24.549Z,9.40
2018-07-20T02:33:52.919Z,10.00
2018-07-20T02:36:26.378Z,8.77
2018-07-20T02:38:54.861Z,9.23
2018-07-20T02:41:23.245Z,9.03
2018-07-20T02:43:51.683Z,9.00
2018-07-20T02:46:20.111Z,8.43
2018-07-20T02:48:48.472Z,8.83
2018-07-20T02:51:21.882Z,8.90
2018-07-20T02:53:50.304Z,8.13
2018-07-20T02:56:18.870Z,7.97
2018-07-20T02:58:47.389Z,11.27
2018-07-20T03:01:15.914Z,8.20
2018-07-20T03:03:44.535Z,10.10
2018-07-20T03:06:13.149Z,8.90
2018-07-20T03:08:41.707Z,11.40
2018-07-20T03:11:10.189Z,8.23
2018-07-20T03:13:38.740Z,12.83
2018-07-20T03:16:07.319Z,10.83
2018-07-20T03:18:35.773Z,9.73
2018-07-20T03:21:04.369Z,9.50
2018-07-20T03:23:33.563Z,9.17
2018-07-20T03:26:02.342Z,11.37
2018-07-20T03:28:44.881Z,8.30
2018-07-20T03:31:13.795Z,9.87
2018-07-20T03:33:42.269Z,8.30
2018-07-20T03:36:11.094Z,8.73
2018-07-20T03:38:39.684Z,10.43
2018-07-20T03:41:08.362Z,8.40
2018-07-20T03:43:36.941Z,10.97
2018-07-20T03:46:05.449Z,10.70
2018-07-20T03:48:34.665Z,11.87
2018-07-20T03:51:03.273Z,8.67
2018-07-20T03:53:31.970Z,13.07
2018-07-20T03:56:00.528Z,7.17
2018-07-20T03:58:29.222Z,6.73
2018-07-20T04:00:57.785Z,10.37
2018-07-20T04:03:26.233Z,9.80
2018-07-20T04:05:55.805Z,12.30
2018-07-20T04:08:24.254Z,11.70
2018-07-20T04:10:53.312Z,6.53
2018-07-20T04:13:21.882Z,7.53
2018-07-20T04:15:50.293Z,10.50
2018-07-20T04:18:19.170Z,7.90
2018-07-20T04:20:47.764Z,10.17
2018-07-20T04:23:16.127Z,9.60
2018-07-20T04:25:48.399Z,9.93
2018-07-20T04:28:17.192Z,7.93
2018-07-20T04:30:45.642Z,10.03
2018-07-20T04:33:14.051Z,8.43
2018-07-20T04:35:42.475Z,8.37
2018-07-20T04:38:10.873Z,8.73
2018-07-20T04:40:39.224Z,9.07
2018-07-20T04:43:07.670Z,10.60
2018-07-20T04:45:36.045Z,9.13
2018-07-20T04:48:04.544Z,8.07
2018-07-20T04:50:38.786Z,9.00
2018-07-20T04:53:12.924Z,9.17
2018-07-20T04:55:41.443Z,10.00
2018-07-20T04:58:09.816Z,8.93
2018-07-20T05:00:38.196Z,13.87
2018-07-20T05:03:07.335Z,10.30
2018-07-20T05:05:35.770Z,7.30
2018-07-20T05:08:04.536Z,8.17
2018-07-20T05:10:32.874Z,9.60
2018-07-20T05:13:01.277Z,7.30
2018-07-20T05:15:29.704Z,9.93
2018-07-20T05:17:58.118Z,11.53
2018-07-20T05:20:31.526Z,11.87
2018-07-20T05:22:59.884Z,14.20
2018-07-20T05:25:28.286Z,11.77
2018-07-20T05:27:56.908Z,13.17
2018-07-20T05:30:25.455Z,10.43
2018-07-20T05:32:54.030Z,11.87
2018-07-20T05:35:27.162Z,13.00
2018-07-20T05:37:55.515Z,10.10
2018-07-20T05:40:24.004Z,10.47
2018-07-20T05:42:52.731Z,9.57
2018-07-20T05:45:21.144Z,7.77
2018-07-20T05:47:49.564Z,10.10
2018-07-20T05:50:18.260Z,9.37
2018-07-20T05:52:47.266Z,8.33
2018-07-20T05:55:15.640Z,7.53
2018-07-20T05:57:44.199Z,7.97
2018-07-20T06:00:12.797Z,7.43
2018-07-20T06:02:41.388Z,7.70
2018-07-20T06:05:09.785Z,6.13
2018-07-20T06:07:38.306Z,11.10
2018-07-20T06:10:07.416Z,7.83
2018-07-20T06:12:35.905Z,12.67
2018-07-20T06:15:04.467Z,9.07
2018-07-20T06:17:33.455Z,12.93
2018-07-20T06:20:02.052Z,12.40
2018-07-20T06:22:31.588Z,10.83
2018-07-20T06:25:00.128Z,12.77
2018-07-20T06:27:28.294Z,15.43
2018-07-20T06:29:56.749Z,10.77
2018-07-20T06:32:26.509Z,8.93
2018-07-20T06:34:54.927Z,11.30
2018-07-20T06:37:23.309Z,9.63
2018-07-20T06:39:51.818Z,6.20
2018-07-20T06:42:20.309Z,9.77
2018-07-20T06:44:48.867Z,9.07
2018-07-20T06:47:17.098Z,7.27
2018-07-20T06:49:45.260Z,13.73
2018-07-20T06:52:13.419Z,9.77
2018-07-20T06:54:41.472Z,8.83
2018-07-20T06:57:09.841Z,9.47
2018-07-20T06:59:38.208Z,8.30
2018-07-20T07:02:07.527Z,9.30
2018-07-20T07:04:36.044Z,7.80
2018-07-20T07:07:04.999Z,12.17
2018-07-20T07:09:34.121Z,8.97
2018-07-20T07:12:02.653Z,8.57
2018-07-20T07:14:31.071Z,8.83
2018-07-20T07:16:59.569Z,10.97
2018-07-20T07:19:27.958Z,8.60
2018-07-20T07:21:56.363Z,8.30
2018-07-20T07:24:24.850Z,8.40
2018-07-20T07:26:53.231Z,11.60
2018-07-20T07:29:21.661Z,8.80
2018-07-20T07:31:50.073Z,9.33
2018-07-20T07:34:18.432Z,10.80
2018-07-20T07:36:46.803Z,11.47
2018-07-20T07:39:15.872Z,10.90
2018-07-20T07:41:44.307Z,11.97
2018-07-20T07:44:12.693Z,10.30
2018-07-20T07:46:46.945Z,10.13
2018-07-20T07:49:15.336Z,11.40
2018-07-20T07:51:43.860Z,6.03
2018-07-20T07:54:12.268Z,6.60
2018-07-20T07:56:40.631Z,10.93
2018-07-20T08:05:12.059Z,9.63
2018-07-20T08:07:40.425Z,9.23
2018-07-20T08:10:08.895Z,8.23
2018-07-20T08:12:37.168Z,10.47
2018-07-20T08:15:06.461Z,11.03
2018-07-20T08:17:35.109Z,11.87
2018-07-20T08:20:03.481Z,15.67
2018-07-20T08:22:31.898Z,24.43
2018-07-20T08:25:00.299Z,22.80
2018-07-20T08:27:28.663Z,15.23
2018-07-20T08:29:57.054Z,18.27
2018-07-20T08:32:25.425Z,8.77
2018-07-20T08:34:53.802Z,7.00
2018-07-20T08:37:22.239Z,6.93
2018-07-20T08:39:50.582Z,7.90
2018-07-20T08:42:18.979Z,9.63
2018-07-20T08:44:48.638Z,11.10
2018-07-20T08:47:17.114Z,9.00
2018-07-20T08:49:45.496Z,6.57
2018-07-20T08:52:13.899Z,7.27
2018-07-20T08:54:42.254Z,15.30
2018-07-20T08:57:11.060Z,4.40
2018-07-20T08:59:39.392Z,8.30
2018-07-20T09:02:07.515Z,8.17
2018-07-20T09:04:35.654Z,6.57
2018-07-20T09:07:04.085Z,10.10
2018-07-20T09:09:32.504Z,7.67
2018-07-20T09:12:00.889Z,8.53
2018-07-20T09:14:29.264Z,19.77
2018-07-20T09:16:57.627Z,8.40
2018-07-20T09:19:26.021Z,13.77
2018-07-20T09:21:54.431Z,6.63
2018-07-20T09:24:22.842Z,8.50
2018-07-20T09:26:51.283Z,9.73
2018-07-20T09:29:20.187Z,6.63
2018-07-20T09:31:48.573Z,14.23
2018-07-20T09:34:16.927Z,4.67
2018-07-20T09:36:45.266Z,5.87
2018-07-20T09:39:13.361Z,4.93
2018-07-20T09:41:41.522Z,6.80
2018-07-20T09:44:10.128Z,4.53
2018-07-20T09:46:39.228Z,3.93
2018-07-20T09:49:08.040Z,4.17
2018-07-20T09:51:36.102Z,5.50
2018-07-20T09:54:04.195Z,7.93
2018-07-20T09:56:32.346Z,5.60
2018-07-20T09:59:00.462Z,5.13
2018-07-20T10:01:28.548Z,5.23
2018-07-20T10:03:56.613Z,3.23
2018-07-20T10:06:24.717Z,4.93
2018-07-20T10:08:52.795Z,2.33
2018-07-20T10:11:20.878Z,4.30
2018-07-20T10:13:48.971Z,6.20
2018-07-20T10:16:17.453Z,3.83
2018-07-20T10:18:45.524Z,3.57
2018-07-20T10:21:13.626Z,2.83
2018-07-20T10:23:41.966Z,7.33
2018-07-20T10:26:10.055Z,7.73
2018-07-20T10:28:38.124Z,6.90
2018-07-20T10:31:06.216Z,5.97
2018-07-20T10:33:34.301Z,7.17
2018-07-20T10:36:02.435Z,4.47
2018-07-20T10:38:30.548Z,4.53
2018-07-20T10:40:58.635Z,3.30
2018-07-20T10:43:26.778Z,5.30
2018-07-20T10:48:29.439Z,4.57
2018-07-20T10:50:57.482Z,3.93
2018-07-20T10:53:25.554Z,4.07
2018-07-20T10:55:53.611Z,5.37
2018-07-20T10:58:21.979Z,5.23
2018-07-20T11:00:50.077Z,8.60
2018-07-20T11:03:18.212Z,3.73
2018-07-20T11:05:46.298Z,4.10
2018-07-20T11:08:14.411Z,4.47
2018-07-20T11:10:42.574Z,3.20
2018-07-20T11:13:10.610Z,6.70
2018-07-20T11:15:38.698Z,3.83
2018-07-20T11:18:06.765Z,7.50
2018-07-20T11:20:34.884Z,5.10
2018-07-20T11:23:03.010Z,6.30
2018-07-20T11:25:31.084Z,6.57
2018-07-20T11:27:59.171Z,4.77
2018-07-20T11:30:27.262Z,6.13
2018-07-20T11:32:55.406Z,4.63
2018-07-20T11:35:23.542Z,3.67
2018-07-20T11:37:51.719Z,3.67
2018-07-20T11:40:19.846Z,3.43
2018-07-20T11:42:48.286Z,5.57
2018-07-20T11:45:16.373Z,2.40
2018-07-20T11:47:44.425Z,4.67
2018-07-20T11:50:12.805Z,3.80
2018-07-20T11:52:40.871Z,7.00
2018-07-20T11:55:08.959Z,3.43
2018-07-20T11:57:37.057Z,5.67
2018-07-20T12:00:05.115Z,4.97
2018-07-20T12:02:33.225Z,4.27
2018-07-20T12:05:01.359Z,4.67
2018-07-20T12:07:29.798Z,3.07
2018-07-20T12:09:57.853Z,7.23
2018-07-20T12:12:25.926Z,2.27
2018-07-20T12:14:54.001Z,4.77
2018-07-20T12:17:22.095Z,5.53
2018-07-20T12:19:50.179Z,4.50
2018-07-20T12:22:18.193Z,6.23
2018-07-20T12:24:46.614Z,3.83
2018-07-20T12:27:14.678Z,3.60
2018-07-20T12:29:42.729Z,5.33
2018-07-20T12:32:10.811Z,5.13
2018-07-20T12:34:38.886Z,4.13
2018-07-20T12:37:07.013Z,6.20
2018-07-20T12:39:35.066Z,5.47
2018-07-20T12:42:05.487Z,5.23
2018-07-20T12:44:33.620Z,4.77
2018-07-20T12:47:01.735Z,11.40
2018-07-20T12:49:29.845Z,3.67
2018-07-20T12:51:57.989Z,6.13
2018-07-20T12:54:26.089Z,3.37
2018-07-20T12:56:54.206Z,4.60
2018-07-20T12:59:22.725Z,4.60
2018-07-20T13:01:50.775Z,6.70
2018-07-20T13:04:19.253Z,6.73
2018-07-20T13:06:47.359Z,10.63
2018-07-20T13:09:15.407Z,4.70
2018-07-20T13:11:43.625Z,3.13
2018-07-20T13:14:12.535Z,4.67
2018-07-20T13:16:41.604Z,4.70
2018-07-20T13:19:09.686Z,4.50
2018-07-20T13:21:37.811Z,3.23
2018-07-20T13:24:05.887Z,6.40
2018-07-20T13:26:34.033Z,12.00
2018-07-20T13:29:02.125Z,6.07
2018-07-20T13:31:30.216Z,6.10
2018-07-20T13:33:58.264Z,5.60
2018-07-20T13:36:26.384Z,4.70
2018-07-20T13:38:54.491Z,3.03
2018-07-20T13:41:22.596Z,10.17
2018-07-20T13:43:50.689Z,6.43
2018-07-20T13:46:18.747Z,6.67
2018-07-20T13:48:46.796Z,6.33
2018-07-20T13:51:14.867Z,6.17
2018-07-20T13:53:42.976Z,6.93
2018-07-20T13:56:11.067Z,7.57
2018-07-20T13:58:39.114Z,5.33
2018-07-20T14:01:07.222Z,2.87
2018-07-20T14:03:35.359Z,4.27
2018-07-20T14:06:03.434Z,4.23
2018-07-20T14:08:31.556Z,4.60
2018-07-20T14:10:59.644Z,4.47
2018-07-20T14:13:27.779Z,3.70
2018-07-20T14:15:56.117Z,4.77
2018-07-20T14:18:24.442Z,4.73
2018-07-20T14:20:52.843Z,3.63
2018-07-20T14:23:20.913Z,5.47
2018-07-20T14:25:49.270Z,3.63
2018-07-20T14:28:17.640Z,4.27
2018-07-20T14:30:45.993Z,7.10
2018-07-20T14:33:14.378Z,3.90
2018-07-20T14:35:42.739Z,2.90
2018-07-20T14:38:11.055Z,3.83
2018-07-20T14:40:39.470Z,3.43
2018-07-20T14:43:07.947Z,5.17
2018-07-20T14:45:36.281Z,7.73
2018-07-20T14:48:04.872Z,5.27
2018-07-20T14:50:33.257Z,4.07
2018-07-20T14:53:01.574Z,4.03
2018-07-20T14:55:29.994Z,5.10
2018-07-20T14:57:59.263Z,3.03
2018-07-20T15:00:27.717Z,7.50
2018-07-20T15:02:56.088Z,4.87
2018-07-20T15:05:24.455Z,5.27
2018-07-20T15:07:54.539Z,2.60
2018-07-20T15:10:22.853Z,5.37
2018-07-20T15:12:51.210Z,7.13
2018-07-20T15:15:19.777Z,2.87
2018-07-20T15:17:48.124Z,3.53
2018-07-20T15:20:16.506Z,2.90
2018-07-20T15:22:44.613Z,4.93
2018-07-20T15:25:12.716Z,5.20
2018-07-20T15:27:41.054Z,2.57
2018-07-20T15:30:09.375Z,5.13
2018-07-20T15:32:37.825Z,6.57
2018-07-20T15:35:06.270Z,5.57
2018-07-20T15:37:34.703Z,2.43
2018-07-20T15:40:03.117Z,4.53
2018-07-20T15:42:31.479Z,3.40
2018-07-20T15:44:59.835Z,2.00
2018-07-20T15:47:28.318Z,2.10
2018-07-20T15:49:56.575Z,6.60
2018-07-20T15:54:53.732Z,3.60
2018-07-20T15:57:22.290Z,2.80
2018-07-20T15:59:50.815Z,3.50
2018-07-20T16:02:18.979Z,5.40
2018-07-20T16:04:47.377Z,3.40
2018-07-20T16:07:15.758Z,13.67
2018-07-20T16:09:44.147Z,13.40
2018-07-20T16:12:12.587Z,18.40
2018-07-20T16:14:41.087Z,14.37
2018-07-20T16:17:09.480Z,6.93
2018-07-20T16:19:37.837Z,11.83
2018-07-20T16:22:06.211Z,10.00
2018-07-20T16:24:34.338Z,5.10
2018-07-20T16:27:02.451Z,3.90
2018-07-20T16:29:30.522Z,5.40
2018-07-20T16:34:37.406Z,4.87
2018-07-20T16:37:05.451Z,8.47
2018-07-20T16:39:33.531Z,9.07
2018-07-20T16:42:01.610Z,4.00
2018-07-20T16:44:29.725Z,4.13
2018-07-20T16:46:57.810Z,3.60
2018-07-20T16:49:25.973Z,4.23
2018-07-20T16:51:54.017Z,3.10
2018-07-20T16:54:22.149Z,4.93
2018-07-20T16:56:50.257Z,6.30
2018-07-20T16:59:18.356Z,3.47
2018-07-20T17:02:05.523Z,4.67
2018-07-20T17:04:33.685Z,3.83
2018-07-20T17:07:01.802Z,7.07
2018-07-20T17:09:30.334Z,4.40
2018-07-20T17:11:58.423Z,4.70
2018-07-20T17:14:28.338Z,7.93
2018-07-20T17:16:59.190Z,5.93
2018-07-20T17:19:32.675Z,3.50
2018-07-20T17:22:02.484Z,4.97
2018-07-20T17:24:30.563Z,4.57
2018-07-20T17:26:59.098Z,4.30
2018-07-20T17:29:27.185Z,6.83
2018-07-20T17:31:55.342Z,4.43
2018-07-20T17:34:23.403Z,3.43
2018-07-20T17:36:51.562Z,3.87
2018-07-20T17:39:19.686Z,5.97
2018-07-20T17:41:48.692Z,6.90
2018-07-20T17:44:30.588Z,11.57
2018-07-20T17:46:58.710Z,7.90
2018-07-20T17:49:26.826Z,7.33
2018-07-20T17:51:54.943Z,6.60
2018-07-20T17:54:23.104Z,5.00
2018-07-20T17:56:51.251Z,2.97
2018-07-20T17:59:19.815Z,5.00
2018-07-20T18:01:48.570Z,4.53
2018-07-20T18:04:16.828Z,6.30
2018-07-20T18:06:44.901Z,6.87
2018-07-20T18:09:13.006Z,4.67
2018-07-20T18:11:41.222Z,3.97
2018-07-20T18:14:09.363Z,7.13
2018-07-20T18:16:37.585Z,4.33
2018-07-20T18:19:05.713Z,3.17
2018-07-20T18:21:33.832Z,4.67
2018-07-20T18:24:01.962Z,4.83
2018-07-20T18:26:30.090Z,5.53
2018-07-20T18:28:58.199Z,4.90
2018-07-20T18:31:26.334Z,8.27
2018-07-20T18:33:54.472Z,6.77
2018-07-20T18:36:22.525Z,4.63
2018-07-20T18:38:50.681Z,6.57
2018-07-20T18:41:19.146Z,7.70
2018-07-20T18:43:47.315Z,3.83
2018-07-20T18:46:15.529Z,3.47
2018-07-20T18:48:43.680Z,7.40
2018-07-20T18:51:11.796Z,5.77
2018-07-20T18:53:40.228Z,5.17
2018-07-20T18:56:08.385Z,3.90
2018-07-20T18:58:41.964Z,4.63
2018-07-20T19:01:10.139Z,4.10
2018-07-20T19:03:38.218Z,5.37
2018-07-20T19:06:06.330Z,4.40
2018-07-20T19:08:34.417Z,5.63
2018-07-20T19:11:02.527Z,5.10
2018-07-20T19:13:36.631Z,4.07
2018-07-20T19:16:05.085Z,2.77
2018-07-20T19:18:33.182Z,2.40
2018-07-20T19:21:01.266Z,3.10
2018-07-20T19:23:29.497Z,6.23
2018-07-20T19:25:57.679Z,4.30
2018-07-20T19:28:25.778Z,5.17
2018-07-20T19:30:53.918Z,4.37
2018-07-20T19:33:22.050Z,6.17
2018-07-20T19:35:50.200Z,11.73
2018-07-20T19:38:18.338Z,6.73
2018-07-20T19:40:46.533Z,2.77
2018-07-20T19:43:14.630Z,3.00
2018-07-20T19:45:42.751Z,3.17
2018-07-20T19:48:10.878Z,4.67
2018-07-20T19:50:39.006Z,3.20
2018-07-20T19:53:07.105Z,5.47
2018-07-20T19:55:35.272Z,3.50
2018-07-20T19:58:03.410Z,4.93
2018-07-20T20:00:31.643Z,4.53
2018-07-20T20:02:59.737Z,6.17
2018-07-20T20:05:27.886Z,6.87
2018-07-20T20:07:55.970Z,6.33
2018-07-20T20:10:24.079Z,2.90
2018-07-20T20:12:52.186Z,3.90
2018-07-20T20:15:20.331Z,3.13
2018-07-20T20:17:48.666Z,4.53
2018-07-20T20:20:16.859Z,2.83
2018-07-20T20:22:45.347Z,3.43
2018-07-20T20:25:13.793Z,6.80
2018-07-20T20:27:42.415Z,6.40
2018-07-20T20:30:10.548Z,4.03
2018-07-20T20:32:38.649Z,3.20
2018-07-20T20:35:06.940Z,10.03
2018-07-20T20:37:36.152Z,3.33
2018-07-20T20:40:04.883Z,4.20
2018-07-20T20:42:33.062Z,9.97
2018-07-20T20:45:01.189Z,4.43
2018-07-20T20:47:29.336Z,8.00
2018-07-20T20:49:57.452Z,7.00
2018-07-20T20:52:25.521Z,4.67
2018-07-20T20:54:53.705Z,8.87
2018-07-20T20:57:21.790Z,4.00
2018-07-20T20:59:49.895Z,4.90
2018-07-20T21:02:17.982Z,5.10
2018-07-20T21:04:46.134Z,5.83
2018-07-20T21:07:14.211Z,6.37
2018-07-20T21:09:42.336Z,4.93
2018-07-20T21:12:10.581Z,6.60
2018-07-20T21:14:38.652Z,7.93
2018-07-20T21:17:07.051Z,10.67
2018-07-20T21:19:35.146Z,6.37
2018-07-20T21:22:03.205Z,4.47
2018-07-20T21:24:31.341Z,4.90
2018-07-20T21:26:59.576Z,4.93
2018-07-20T21:29:27.693Z,5.10
2018-07-20T21:31:55.786Z,6.77
2018-07-20T21:34:23.850Z,8.23
2018-07-20T21:36:51.922Z,7.13
2018-07-20T21:39:20.024Z,6.37
2018-07-20T21:41:48.110Z,5.33
2018-07-20T21:44:16.199Z,5.80
2018-07-20T21:46:44.291Z,6.87
2018-07-20T21:49:12.362Z,6.07
2018-07-20T21:51:40.414Z,4.73
2018-07-20T21:54:08.530Z,6.07
2018-07-20T21:56:36.598Z,4.33
2018-07-20T21:59:04.715Z,5.43
2018-07-20T22:01:32.817Z,6.33
2018-07-20T22:04:00.916Z,8.57
2018-07-20T22:06:29.040Z,7.97
2018-07-20T22:08:57.130Z,5.93
2018-07-20T22:11:26.242Z,5.53
2018-07-20T22:13:54.331Z,6.33
2018-07-20T22:16:22.392Z,4.17
2018-07-20T22:18:50.486Z,4.87
2018-07-20T22:21:18.616Z,5.67
2018-07-20T22:23:46.705Z,7.67
2018-07-20T22:26:14.825Z,8.37
2018-07-20T22:28:42.935Z,7.93
2018-07-20T22:31:11.062Z,4.63
2018-07-20T22:33:39.159Z,6.03
2018-07-20T22:36:07.245Z,8.87
2018-07-20T22:38:35.334Z,4.97
2018-07-20T22:41:03.462Z,5.60
2018-07-20T22:43:31.574Z,7.47
2018-07-20T22:45:59.679Z,5.63
2018-07-20T22:48:27.765Z,7.27
2018-07-20T22:50:55.873Z,5.80
2018-07-20T22:53:23.968Z,5.43
2018-07-20T22:55:52.074Z,6.77
2018-07-20T22:58:20.192Z,4.17
2018-07-20T23:00:48.279Z,4.73
2018-07-20T23:03:16.382Z,4.73
2018-07-20T23:05:44.467Z,5.13
2018-07-20T23:08:12.570Z,7.03
2018-07-20T23:10:40.684Z,3.93
2018-07-20T23:13:08.804Z,9.73
2018-07-20T23:15:36.918Z,6.10
2018-07-20T23:18:05.133Z,7.67
2018-07-20T23:20:33.205Z,4.83
2018-07-20T23:23:01.331Z,8.60
2018-07-20T23:25:29.430Z,7.93
2018-07-20T23:27:57.514Z,5.37
2018-07-20T23:30:25.662Z,7.40
2018-07-20T23:32:53.776Z,6.70
2018-07-20T23:35:21.925Z,10.97
2018-07-20T23:37:50.035Z,4.80
2018-07-20T23:40:18.140Z,8.07
2018-07-20T23:42:46.212Z,6.77
2018-07-20T23:45:14.331Z,7.90
2018-07-20T23:47:42.485Z,5.13
2018-07-20T23:50:10.945Z,6.90
2018-07-20T23:52:39.133Z,7.17
2018-07-20T23:55:07.729Z,7.63
2018-07-20T23:57:35.855Z,7.20
